^^
Station Historical Data
 
Daily Summary for February 20, 2019 Units:  English    Metric   Both
« Previous Day
Next Day »
Daily Weekly Monthly Yearly Custom
  Current: High: Low: Average:
Temperature: 46.8 °F TemperatureF °F 36.9 °F 45.9 °F
Dew Point: 39.0 °F DewpointF °F 28.8 °F 35.8 °F
Humidity: 74% Humidity% 31% 71%
Wind Speed: 2.0mph WindSpeedMPHmph 0.0mph 4.2mph
Wind Gust: 3.0mph WindSpeedGustMPHmph - -
WindESE - - SW
Pressure: 30.01 in PressureIn in 29.92 in -
Precipitation: 0.00 in      
Historical Graphs
 
 
Tabular Data for February 20, 2019
Time Temperature Dew Point Pressure Wind Wind Speed Wind Gust Humidity Rainfall Rate (Hourly) solar Conditions
TemperatureF °F DewpointF °F PressureIn in Calm     Humidity% HourlyPrecipIn in SolarRadiationWatts/m^2 W/m2 Conditions
00:04 37.7 °F 35.9 °F 29.96 in WNW 2.0 mph 4.0 mph 93% 0.00 in 0.00 W/m2
00:09 37.7 °F 35.9 °F 29.96 in WNW 2.0 mph 4.0 mph 93% 0.00 in 0.00 W/m2
00:14 37.7 °F 35.9 °F 29.96 in WNW 2.0 mph 4.0 mph 93% 0.00 in 0.00 W/m2
00:19 37.7 °F 35.9 °F 29.96 in West 2.0 mph 5.0 mph 93% 0.00 in 0.00 W/m2
00:23 37.7 °F 35.9 °F 29.95 in West 2.0 mph 5.0 mph 93% 0.00 in 0.00 W/m2
00:29 37.7 °F 35.9 °F 29.96 in WNW 2.0 mph 5.0 mph 93% 0.00 in 0.00 W/m2
00:34 37.8 °F 36.0 °F 29.96 in WNW 4.0 mph 5.0 mph 93% 0.00 in 0.00 W/m2
00:39 37.7 °F 35.9 °F 29.96 in West 6.0 mph 7.0 mph 93% 0.00 in 0.00 W/m2
00:44 37.7 °F 35.9 °F 29.96 in West 4.0 mph 7.0 mph 93% 0.00 in 0.00 W/m2
00:49 37.7 °F 35.9 °F 29.96 in WNW 5.0 mph 7.0 mph 93% 0.00 in 0.00 W/m2
00:54 37.8 °F 36.0 °F 29.96 in WNW 5.0 mph 6.0 mph 93% 0.00 in 0.00 W/m2
00:59 37.8 °F 36.0 °F 29.96 in WNW 4.0 mph 7.0 mph 93% 0.00 in 0.00 W/m2
01:04 37.8 °F 36.0 °F 29.96 in WNW 4.0 mph 7.0 mph 93% 0.00 in 0.00 W/m2
01:09 37.8 °F 36.0 °F 29.96 in WNW 4.0 mph 9.0 mph 93% 0.00 in 0.00 W/m2
01:14 37.8 °F 36.0 °F 29.96 in WNW 3.0 mph 9.0 mph 93% 0.00 in 0.00 W/m2
01:19 37.8 °F 36.0 °F 29.96 in West 3.0 mph 9.0 mph 93% 0.00 in 0.00 W/m2
01:24 37.7 °F 35.9 °F 29.97 in West 4.0 mph 9.0 mph 93% 0.00 in 0.00 W/m2
01:30 37.7 °F 35.9 °F 29.97 in WNW 4.0 mph 9.0 mph 93% 0.00 in 0.00 W/m2
01:34 37.6 °F 35.8 °F 29.97 in WNW 3.0 mph 8.0 mph 93% 0.00 in 0.00 W/m2
01:40 37.5 °F 35.7 °F 29.96 in NW 2.0 mph 8.0 mph 93% 0.00 in 0.00 W/m2
01:44 37.6 °F 35.8 °F 29.96 in WNW 6.0 mph 8.0 mph 93% 0.00 in 0.00 W/m2
01:49 37.7 °F 35.9 °F 29.96 in WNW 5.0 mph 10.0 mph 93% 0.00 in 0.00 W/m2
01:54 37.6 °F 35.8 °F 29.96 in WNW 4.0 mph 10.0 mph 93% 0.00 in 0.00 W/m2
01:59 37.7 °F 35.9 °F 29.96 in WNW 7.0 mph 9.0 mph 93% 0.00 in 0.00 W/m2
02:04 37.7 °F 35.9 °F 29.96 in West 8.0 mph 12.0 mph 93% 0.00 in 0.00 W/m2
02:09 37.7 °F 35.9 °F 29.97 in WNW 4.0 mph 14.0 mph 93% 0.00 in 0.00 W/m2
02:14 37.7 °F 35.9 °F 29.96 in West 10.0 mph 16.0 mph 93% 0.00 in 0.00 W/m2
02:19 37.7 °F 35.6 °F 29.97 in WNW 10.0 mph 16.0 mph 92% 0.00 in 0.00 W/m2
02:24 37.7 °F 35.6 °F 29.97 in NW 5.0 mph 15.0 mph 92% 0.00 in 0.00 W/m2
02:29 37.8 °F 35.7 °F 29.97 in NW 9.0 mph 14.0 mph 92% 0.00 in 0.00 W/m2
02:34 37.8 °F 35.7 °F 29.97 in West 3.0 mph 13.0 mph 92% 0.00 in 0.00 W/m2
02:39 37.9 °F 35.8 °F 29.97 in NW 11.0 mph 13.0 mph 92% 0.00 in 0.00 W/m2
02:44 37.9 °F 35.8 °F 29.97 in WNW 8.0 mph 13.0 mph 92% 0.00 in 0.00 W/m2
02:49 37.8 °F 35.7 °F 29.97 in NW 4.0 mph 13.0 mph 92% 0.00 in 0.00 W/m2
02:54 37.9 °F 35.8 °F 29.97 in SW 8.0 mph 13.0 mph 92% 0.00 in 0.00 W/m2
02:59 37.9 °F 35.8 °F 29.97 in WSW 8.0 mph 15.0 mph 92% 0.00 in 0.00 W/m2
03:04 38.0 °F 35.9 °F 29.98 in WNW 3.0 mph 15.0 mph 92% 0.00 in 0.00 W/m2
03:09 38.0 °F 35.9 °F 29.98 in West 8.0 mph 13.0 mph 92% 0.00 in 0.00 W/m2
03:14 37.9 °F 35.5 °F 29.98 in WNW 5.0 mph 13.0 mph 91% 0.00 in 0.00 W/m2
03:19 38.0 °F 35.6 °F 29.98 in West 7.0 mph 12.0 mph 91% 0.00 in 0.00 W/m2
03:24 38.0 °F 35.6 °F 29.98 in West 2.0 mph 12.0 mph 91% 0.00 in 0.00 W/m2
03:29 37.9 °F 35.5 °F 29.96 in West 4.0 mph 11.0 mph 91% 0.00 in 0.00 W/m2
03:34 37.9 °F 35.5 °F 29.97 in West 9.0 mph 16.0 mph 91% 0.00 in 0.00 W/m2
03:39 37.7 °F 35.3 °F 29.96 in WNW 11.0 mph 17.0 mph 91% 0.00 in 0.00 W/m2
03:44 37.6 °F 35.2 °F 29.96 in West 8.0 mph 17.0 mph 91% 0.00 in 0.00 W/m2
03:49 37.4 °F 35.0 °F 29.97 in WNW 9.0 mph 15.0 mph 91% 0.00 in 0.00 W/m2
03:54 37.2 °F 34.5 °F 29.97 in WNW 5.0 mph 17.0 mph 90% 0.00 in 0.00 W/m2
03:59 37.1 °F 34.4 °F 29.97 in WNW 7.0 mph 17.0 mph 90% 0.00 in 0.00 W/m2
04:05 37.0 °F 34.3 °F 29.97 in NNW 10.0 mph 12.0 mph 90% 0.00 in 0.00 W/m2
04:10 36.9 °F 34.2 °F 29.97 in WNW 7.0 mph 12.0 mph 90% 0.00 in 0.00 W/m2
04:14 37.0 °F 34.3 °F 29.97 in NW 6.0 mph 12.0 mph 90% 0.00 in 0.00 W/m2
04:20 36.9 °F 34.2 °F 29.96 in West 6.0 mph 12.0 mph 90% 0.00 in 0.00 W/m2
04:24 36.9 °F 34.2 °F 29.96 in WNW 8.0 mph 15.0 mph 90% 0.00 in 0.00 W/m2
04:30 36.9 °F 34.2 °F 29.95 in West 10.0 mph 15.0 mph 90% 0.00 in 0.00 W/m2
04:34 37.0 °F 34.3 °F 29.96 in WSW 8.0 mph 13.0 mph 90% 0.00 in 0.00 W/m2
04:39 37.0 °F 34.3 °F 29.96 in WNW 4.0 mph 13.0 mph 90% 0.00 in 0.00 W/m2
04:44 36.9 °F 34.2 °F 29.96 in WNW 8.0 mph 13.0 mph 90% 0.00 in 0.00 W/m2
04:49 37.0 °F 34.3 °F 29.97 in West 8.0 mph 13.0 mph 90% 0.00 in 0.00 W/m2
04:54 37.0 °F 34.3 °F 29.97 in West 9.0 mph 11.0 mph 90% 0.00 in 0.00 W/m2
04:59 37.0 °F 34.3 °F 29.97 in West 4.0 mph 11.0 mph 90% 0.00 in 0.00 W/m2
05:04 37.0 °F 34.3 °F 29.97 in WSW 5.0 mph 12.0 mph 90% 0.00 in 0.00 W/m2
05:09 37.0 °F 34.3 °F 29.97 in West 4.0 mph 12.0 mph 90% 0.00 in 0.00 W/m2
05:14 37.1 °F 34.4 °F 29.97 in West 3.0 mph 9.0 mph 90% 0.00 in 0.00 W/m2
05:15 37.1 °F 35.0 °F 29.97 in West 2.0 mph 9.0 mph 90% 0.00 in 0.00 W/m2
05:23 37.1 °F 34.4 °F 29.97 in West 4.0 mph 9.0 mph 90% 0.00 in 0.00 W/m2
05:27 37.1 °F 34.4 °F 29.97 in West 6.0 mph 15.0 mph 90% 0.00 in 0.00 W/m2
05:32 37.2 °F 34.5 °F 29.96 in West 6.0 mph 13.0 mph 90% 0.00 in 0.00 W/m2
05:37 37.2 °F 34.5 °F 29.97 in WNW 7.0 mph 11.0 mph 90% 0.00 in 0.00 W/m2
05:41 37.3 °F 34.6 °F 29.97 in West 7.0 mph 11.0 mph 90% 0.00 in 0.00 W/m2
05:48 37.3 °F 34.6 °F 29.97 in West 8.0 mph 12.0 mph 90% 0.00 in 0.00 W/m2
05:53 37.4 °F 34.5 °F 29.98 in WNW 4.0 mph 13.0 mph 89% 0.00 in 0.00 W/m2
05:59 37.4 °F 34.5 °F 29.98 in West 7.0 mph 13.0 mph 89% 0.00 in 0.00 W/m2
06:04 37.5 °F 34.6 °F 29.97 in West 7.0 mph 13.0 mph 89% 0.00 in 0.00 W/m2
06:09 37.4 °F 34.5 °F 29.98 in West 4.0 mph 13.0 mph 89% 0.00 in 0.00 W/m2
06:14 37.5 °F 34.6 °F 29.97 in WNW 7.0 mph 12.0 mph 89% 0.00 in 0.00 W/m2
06:19 37.6 °F 34.7 °F 29.98 in West 6.0 mph 12.0 mph 89% 0.00 in 0.00 W/m2
06:24 37.6 °F 34.7 °F 29.98 in WNW 9.0 mph 12.0 mph 89% 0.00 in 0.00 W/m2
06:29 37.6 °F 34.7 °F 29.97 in WSW 3.0 mph 13.0 mph 89% 0.00 in 0.00 W/m2
06:34 37.6 °F 34.7 °F 29.98 in WSW 5.0 mph 13.0 mph 89% 0.00 in 0.00 W/m2
06:39 37.5 °F 34.6 °F 29.98 in NW 5.0 mph 14.0 mph 89% 0.00 in 0.00 W/m2
06:43 37.5 °F 34.6 °F 29.98 in West 8.0 mph 15.0 mph 89% 0.00 in 0.00 W/m2
06:49 37.4 °F 34.2 °F 29.99 in West 7.0 mph 15.0 mph 88% 0.00 in 0.00 W/m2
06:54 37.5 °F 34.3 °F 29.99 in West 7.0 mph 14.0 mph 88% 0.00 in 0.00 W/m2
06:59 37.5 °F 34.3 °F 29.99 in West 4.0 mph 10.0 mph 88% 0.00 in 0.00 W/m2
07:04 37.6 °F 34.4 °F 29.99 in WNW 2.0 mph 10.0 mph 88% 0.00 in 0.00 W/m2
07:10 37.6 °F 34.7 °F 30.00 in West 4.0 mph 10.0 mph 89% 0.00 in 0.00 W/m2
07:14 37.7 °F 34.8 °F 30.00 in WSW 4.0 mph 9.0 mph 89% 0.00 in 0.00 W/m2
07:19 37.6 °F 34.4 °F 30.00 in WSW 8.0 mph 13.0 mph 88% 0.00 in 5.00 W/m2
07:24 37.6 °F 34.7 °F 30.00 in West 15.0 mph 15.0 mph 89% 0.00 in 7.00 W/m2
07:29 37.5 °F 34.3 °F 30.00 in WSW 10.0 mph 15.0 mph 88% 0.00 in 9.00 W/m2
07:34 37.5 °F 34.3 °F 30.00 in West 6.0 mph 13.0 mph 88% 0.00 in 14.00 W/m2
07:39 37.5 °F 34.3 °F 30.01 in WSW 4.0 mph 13.0 mph 88% 0.00 in 19.00 W/m2
07:44 37.5 °F 34.3 °F 30.01 in WSW 4.0 mph 11.0 mph 88% 0.00 in 42.00 W/m2
07:49 37.5 °F 34.3 °F 30.02 in WSW 3.0 mph 10.0 mph 88% 0.00 in 67.00 W/m2
07:54 37.5 °F 34.0 °F 30.02 in WSW 9.0 mph 12.0 mph 87% 0.00 in 65.00 W/m2
07:59 37.6 °F 34.1 °F 30.02 in West 12.0 mph 12.0 mph 87% 0.00 in 109.00 W/m2
08:04 37.6 °F 34.1 °F 30.02 in WSW 7.0 mph 11.0 mph 87% 0.00 in 134.00 W/m2
08:09 37.7 °F 34.2 °F 30.03 in West 4.0 mph 11.0 mph 87% 0.00 in 93.00 W/m2
08:14 37.7 °F 34.2 °F 30.02 in West 6.0 mph 11.0 mph 87% 0.00 in 81.00 W/m2
08:19 37.9 °F 34.4 °F 30.02 in WNW 3.0 mph 11.0 mph 87% 0.00 in 81.00 W/m2
08:24 37.9 °F 34.1 °F 30.02 in West 7.0 mph 11.0 mph 86% 0.00 in 58.00 W/m2
08:29 37.9 °F 34.1 °F 30.02 in WNW 7.0 mph 11.0 mph 86% 0.00 in 100.00 W/m2
08:34 38.0 °F 34.2 °F 30.02 in WNW 7.0 mph 11.0 mph 86% 0.00 in 84.00 W/m2
08:39 38.0 °F 34.2 °F 30.02 in WSW 6.0 mph 11.0 mph 86% 0.00 in 69.00 W/m2
08:44 38.3 °F 34.5 °F 30.03 in West 6.0 mph 9.0 mph 86% 0.00 in 229.00 W/m2
08:49 38.5 °F 34.7 °F 30.02 in SW 5.0 mph 9.0 mph 86% 0.00 in 251.00 W/m2
08:54 39.2 °F 35.1 °F 30.03 in WSW 4.0 mph 8.0 mph 85% 0.00 in 269.00 W/m2
08:59 39.8 °F 35.4 °F 30.03 in WSW 7.0 mph 9.0 mph 84% 0.00 in 281.00 W/m2
09:04 39.8 °F 35.1 °F 30.04 in SW 3.0 mph 8.0 mph 83% 0.00 in 297.00 W/m2
09:09 40.0 °F 35.3 °F 30.03 in WSW 5.0 mph 11.0 mph 83% 0.00 in 315.00 W/m2
09:14 40.1 °F 35.4 °F 30.03 in SW 3.0 mph 11.0 mph 83% 0.00 in 330.00 W/m2
09:19 40.3 °F 35.3 °F 30.03 in SW 2.0 mph 6.0 mph 82% 0.00 in 350.00 W/m2
09:24 40.9 °F 36.1 °F 30.04 in West 2.0 mph 8.0 mph 83% 0.00 in 369.00 W/m2
09:29 41.3 °F 35.9 °F 30.03 in SW 2.0 mph 7.0 mph 81% 0.00 in 380.00 W/m2
09:34 41.3 °F 35.9 °F 30.03 in SW 4.0 mph 9.0 mph 81% 0.00 in 396.00 W/m2
09:39 41.8 °F 35.8 °F 30.03 in WSW 3.0 mph 10.0 mph 79% 0.00 in 411.00 W/m2
09:44 42.0 °F 36.0 °F 30.03 in SSW 5.0 mph 10.0 mph 79% 0.00 in 420.00 W/m2
09:49 41.9 °F 35.6 °F 30.03 in SSW 5.0 mph 7.0 mph 78% 0.00 in 429.00 W/m2
09:52 41.9 °F 35.6 °F 30.03 in SSW 4.0 mph 7.0 mph 78% 0.00 in 404.00 W/m2
12:19 52.6 °F 39.1 °F 29.99 in West 6.0 mph 10.0 mph 60% 0.00 in 559.00 W/m2
12:24 52.4 °F 38.1 °F 29.99 in West 7.0 mph 10.0 mph 58% 0.00 in 195.00 W/m2
12:29 52.8 °F 38.0 °F 29.98 in SSW 3.0 mph 10.0 mph 57% 0.00 in 749.00 W/m2
12:34 53.1 °F 37.4 °F 29.98 in SW 2.0 mph 10.0 mph 55% 0.00 in 744.00 W/m2
12:39 53.9 °F 38.1 °F 29.98 in WNW 5.0 mph 13.0 mph 55% 0.00 in 737.00 W/m2
12:40 54.1 °F 38.8 °F 29.98 in West 7.0 mph 13.0 mph 56% 0.00 in 735.00 W/m2
13:00 55.0 °F 38.0 °F 29.97 in WSW 4.0 mph 14.0 mph 53% 0.00 in 392.00 W/m2
13:15 56.2 °F 37.0 °F 29.96 in WSW 2.0 mph 9.0 mph 48% 0.00 in 768.00 W/m2
13:34 56.7 °F 36.7 °F 29.94 in SSW 5.0 mph 11.0 mph 47% 0.00 in 745.00 W/m2
13:39 56.4 °F 34.8 °F 29.95 in SSW 2.0 mph 12.0 mph 44% 0.00 in 745.00 W/m2
13:44 57.3 °F 36.1 °F 29.95 in West 7.0 mph 12.0 mph 45% 0.00 in 700.00 W/m2
13:49 57.6 °F 35.3 °F 29.94 in WSW 8.0 mph 11.0 mph 43% 0.00 in 330.00 W/m2
13:54 57.2 °F 36.1 °F 29.94 in WSW 3.0 mph 10.0 mph 45% 0.00 in 638.00 W/m2
13:59 58.6 °F 36.2 °F 29.94 in West 8.0 mph 9.0 mph 43% 0.00 in 694.00 W/m2
14:04 58.9 °F 32.7 °F 29.94 in North 3.0 mph 13.0 mph 37% 0.00 in 621.00 W/m2
14:09 59.6 °F 34.0 °F 29.93 in WNW 6.0 mph 11.0 mph 38% 0.00 in 733.00 W/m2
14:14 58.7 °F 31.8 °F 29.93 in NNE 2.0 mph 11.0 mph 36% 0.00 in 629.00 W/m2
14:19 57.9 °F 32.5 °F 29.94 in SSW 3.0 mph 11.0 mph 38% 0.00 in 633.00 W/m2
14:24 57.3 °F 32.6 °F 29.93 in SSW 3.0 mph 9.0 mph 39% 0.00 in 687.00 W/m2
14:29 58.1 °F 32.6 °F 29.93 in WSW 3.0 mph 7.0 mph 38% 0.00 in 508.00 W/m2
14:34 58.9 °F 34.0 °F 29.93 in SW 4.0 mph 7.0 mph 39% 0.00 in 541.00 W/m2
14:39 59.6 °F 34.6 °F 29.93 in NW 6.0 mph 11.0 mph 39% 0.00 in 578.00 W/m2
14:44 58.9 °F 33.3 °F 29.93 in NW 2.0 mph 11.0 mph 38% 0.00 in 594.00 W/m2
14:49 59.3 °F 34.3 °F 29.93 in WSW 3.0 mph 11.0 mph 39% 0.00 in 568.00 W/m2
14:54 58.8 °F 32.6 °F 29.93 in West 7.0 mph 11.0 mph 37% 0.00 in 327.00 W/m2
14:59 58.7 °F 34.4 °F 29.93 in WNW 3.0 mph 9.0 mph 40% 0.00 in 279.00 W/m2
15:04 59.1 °F 32.9 °F 29.93 in WSW 3.0 mph 9.0 mph 37% 0.00 in 394.00 W/m2
15:09 59.4 °F 33.8 °F 29.93 in SSW 6.0 mph 8.0 mph 38% 0.00 in 410.00 W/m2
15:14 59.5 °F 34.5 °F 29.93 in NW 7.0 mph 8.0 mph 39% 0.00 in 492.00 W/m2
15:19 59.3 °F 34.3 °F 29.93 in NW 1.0 mph 8.0 mph 39% 0.00 in 394.00 W/m2
15:24 59.0 °F 32.8 °F 29.93 in ENE 4.0 mph 4.0 mph 37% 0.00 in 357.00 W/m2
15:29 59.1 °F 36.6 °F 29.93 in East 1.0 mph 4.0 mph 43% 0.00 in 438.00 W/m2
15:34 59.7 °F 34.7 °F 29.93 in East 1.0 mph 6.0 mph 39% 0.00 in 529.00 W/m2
15:39 59.9 °F 34.2 °F 29.92 in WNW 6.0 mph 7.0 mph 38% 0.00 in 422.00 W/m2
15:44 59.6 °F 35.3 °F 29.93 in SW 3.0 mph 7.0 mph 40% 0.00 in 339.00 W/m2
15:49 59.9 °F 31.5 °F 29.93 in WSW 4.0 mph 11.0 mph 34% 0.00 in 548.00 W/m2
15:54 59.7 °F 34.1 °F 29.93 in WNW 2.0 mph 11.0 mph 38% 0.00 in 378.00 W/m2
15:59 59.9 °F 34.2 °F 29.93 in SSW 6.0 mph 7.0 mph 38% 0.00 in 404.00 W/m2
16:04 59.3 °F 32.4 °F 29.92 in South 2.0 mph 9.0 mph 36% 0.00 in 214.00 W/m2
16:09 59.3 °F 31.7 °F 29.93 in South 1.0 mph 7.0 mph 35% 0.00 in 272.00 W/m2
16:14 60.2 °F 32.4 °F 29.92 in South 1.0 mph 2.0 mph 35% 0.00 in 202.00 W/m2
16:19 59.9 °F 32.9 °F 29.92 in South 1.0 mph 3.0 mph 36% 0.00 in 422.00 W/m2
16:24 59.2 °F 30.9 °F 29.92 in South 2.0 mph 3.0 mph 34% 0.00 in 116.00 W/m2
16:29 59.4 °F 31.7 °F 29.93 in South 4.0 mph 6.0 mph 35% 0.00 in 239.00 W/m2
16:34 59.3 °F 30.2 °F 29.92 in SSW 4.0 mph 7.0 mph 33% 0.00 in 160.00 W/m2
16:39 59.5 °F 28.8 °F 29.92 in SW 5.0 mph 8.0 mph 31% 0.00 in 311.00 W/m2
16:44 59.5 °F 29.6 °F 29.93 in SSW 1.0 mph 8.0 mph 32% 0.00 in 181.00 W/m2
16:49 59.2 °F 29.4 °F 29.93 in SW 3.0 mph 7.0 mph 32% 0.00 in 139.00 W/m2
16:54 59.2 °F 35.5 °F 29.93 in ESE 2.0 mph 7.0 mph 41% 0.00 in 171.00 W/m2
16:59 58.1 °F 38.0 °F 29.93 in ESE 5.0 mph 9.0 mph 47% 0.00 in 260.00 W/m2
17:04 57.5 °F 38.5 °F 29.93 in SSE 1.0 mph 10.0 mph 49% 0.00 in 100.00 W/m2
17:09 57.1 °F 39.1 °F 29.94 in SE 4.0 mph 10.0 mph 51% 0.00 in 74.00 W/m2
17:14 56.9 °F 38.5 °F 29.93 in ESE 2.0 mph 10.0 mph 50% 0.00 in 97.00 W/m2
17:19 56.8 °F 38.4 °F 29.93 in SSE 4.0 mph 8.0 mph 50% 0.00 in 91.00 W/m2
17:24 56.6 °F 38.2 °F 29.93 in South 2.0 mph 10.0 mph 50% 0.00 in 83.00 W/m2
17:29 56.3 °F 37.9 °F 29.93 in ESE 7.0 mph 11.0 mph 50% 0.00 in 83.00 W/m2
17:34 56.0 °F 38.1 °F 29.94 in SE 1.0 mph 11.0 mph 51% 0.00 in 53.00 W/m2
17:39 55.7 °F 38.3 °F 29.94 in SSE 6.0 mph 9.0 mph 52% 0.00 in 53.00 W/m2
17:44 55.5 °F 37.7 °F 29.94 in SE 3.0 mph 9.0 mph 51% 0.00 in 39.00 W/m2
17:49 55.3 °F 38.0 °F 29.94 in ESE 3.0 mph 9.0 mph 52% 0.00 in 39.00 W/m2
17:54 55.2 °F 37.9 °F 29.94 in ESE 2.0 mph 9.0 mph 52% 0.00 in 28.00 W/m2
17:59 55.0 °F 38.2 °F 29.94 in SSE 5.0 mph 7.0 mph 53% 0.00 in 19.00 W/m2
18:04 54.9 °F 38.1 °F 29.94 in ESE 4.0 mph 7.0 mph 53% 0.00 in 16.00 W/m2
18:09 54.7 °F 37.4 °F 29.95 in SSE 2.0 mph 8.0 mph 52% 0.00 in 11.00 W/m2
18:14 54.7 °F 37.9 °F 29.95 in SE 2.0 mph 8.0 mph 53% 0.00 in 7.00 W/m2
18:19 54.6 °F 37.3 °F 29.95 in Calm   8.0 mph 52% 0.00 in 0.00 W/m2
18:24 54.3 °F 37.5 °F 29.95 in SE 3.0 mph 6.0 mph 53% 0.00 in 0.00 W/m2
18:29 54.1 °F 37.8 °F 29.95 in SE 1.0 mph 5.0 mph 54% 0.00 in 0.00 W/m2
18:34 53.9 °F 38.1 °F 29.95 in SE 1.0 mph 6.0 mph 55% 0.00 in 0.00 W/m2
18:39 53.7 °F 37.5 °F 29.95 in SE 2.0 mph 6.0 mph 54% 0.00 in 0.00 W/m2
18:44 53.5 °F 37.7 °F 29.95 in SE 1.0 mph 4.0 mph 55% 0.00 in 0.00 W/m2
18:49 53.1 °F 37.8 °F 29.95 in SSE 1.0 mph 5.0 mph 56% 0.00 in 0.00 W/m2
18:54 53.1 °F 38.3 °F 29.95 in ESE 2.0 mph 5.0 mph 57% 0.00 in 0.00 W/m2
18:59 53.0 °F 38.2 °F 29.96 in SE 1.0 mph 5.0 mph 57% 0.00 in 0.00 W/m2
19:04 52.2 °F 37.9 °F 29.96 in Calm   3.0 mph 58% 0.00 in 0.00 W/m2
19:09 51.5 °F 38.1 °F 29.96 in SE 1.0 mph 4.0 mph 60% 0.00 in 0.00 W/m2
19:14 51.5 °F 38.1 °F 29.96 in SE 1.0 mph 4.0 mph 60% 0.00 in 0.00 W/m2
19:19 51.4 °F 38.0 °F 29.97 in SE 2.0 mph 4.0 mph 60% 0.00 in 0.00 W/m2
19:24 51.6 °F 38.2 °F 29.96 in SE 1.0 mph 4.0 mph 60% 0.00 in 0.00 W/m2
19:29 51.6 °F 37.7 °F 29.96 in SE 2.0 mph 4.0 mph 59% 0.00 in 0.00 W/m2
19:34 51.6 °F 37.7 °F 29.96 in SE 2.0 mph 3.0 mph 59% 0.00 in 0.00 W/m2
19:39 51.7 °F 38.3 °F 29.96 in ESE 4.0 mph 8.0 mph 60% 0.00 in 0.00 W/m2
19:44 51.9 °F 38.9 °F 29.97 in SE 2.0 mph 9.0 mph 61% 0.00 in 0.00 W/m2
19:49 51.9 °F 39.3 °F 29.97 in SE 2.0 mph 9.0 mph 62% 0.00 in 0.00 W/m2
19:54 51.8 °F 39.6 °F 29.97 in SSE 2.0 mph 8.0 mph 63% 0.00 in 0.00 W/m2
19:59 51.7 °F 39.9 °F 29.98 in SE 1.0 mph 8.0 mph 64% 0.00 in 0.00 W/m2
20:04 51.6 °F 39.8 °F 29.98 in SE 5.0 mph 7.0 mph 64% 0.00 in 0.00 W/m2
20:09 51.5 °F 39.7 °F 29.98 in SSE 3.0 mph 7.0 mph 64% 0.00 in 0.00 W/m2
20:14 51.3 °F 39.9 °F 29.99 in SSE 4.0 mph 7.0 mph 65% 0.00 in 0.00 W/m2
20:19 51.2 °F 39.8 °F 29.99 in SSE 2.0 mph 7.0 mph 65% 0.00 in 0.00 W/m2
20:24 50.9 °F 40.0 °F 29.99 in SE 2.0 mph 7.0 mph 66% 0.00 in 0.00 W/m2
20:29 50.6 °F 39.7 °F 29.99 in SE 2.0 mph 7.0 mph 66% 0.00 in 0.00 W/m2
20:34 50.5 °F 40.0 °F 29.99 in SE 2.0 mph 7.0 mph 67% 0.00 in 0.00 W/m2
20:39 50.4 °F 39.9 °F 29.99 in SSE 2.0 mph 8.0 mph 67% 0.00 in 0.00 W/m2
20:44 50.4 °F 39.9 °F 29.99 in SE 3.0 mph 8.0 mph 67% 0.00 in 0.00 W/m2
20:49 50.2 °F 39.7 °F 29.99 in South 2.0 mph 7.0 mph 67% 0.00 in 0.00 W/m2
20:54 50.1 °F 40.0 °F 30.00 in SE 2.0 mph 7.0 mph 68% 0.00 in 0.00 W/m2
20:59 50.0 °F 39.9 °F 30.00 in SE 1.0 mph 6.0 mph 68% 0.00 in 0.00 W/m2
21:04 49.8 °F 40.0 °F 30.00 in SSE 3.0 mph 6.0 mph 69% 0.00 in 0.00 W/m2
21:09 49.7 °F 39.9 °F 30.00 in SSE 6.0 mph 6.0 mph 69% 0.00 in 0.00 W/m2
21:14 49.6 °F 39.9 °F 30.00 in SSE 2.0 mph 6.0 mph 69% 0.00 in 0.00 W/m2
21:19 49.4 °F 40.0 °F 30.00 in SE 1.0 mph 5.0 mph 70% 0.00 in 0.00 W/m2
21:24 49.2 °F 39.8 °F 30.00 in SSE 2.0 mph 5.0 mph 70% 0.00 in 0.00 W/m2
21:29 49.2 °F 39.8 °F 30.00 in SSE 2.0 mph 5.0 mph 70% 0.00 in 0.00 W/m2
21:34 48.7 °F 39.7 °F 30.00 in SSE 2.0 mph 5.0 mph 71% 0.00 in 0.00 W/m2
21:39 47.9 °F 39.7 °F 30.00 in SSE 2.0 mph 5.0 mph 73% 0.00 in 0.00 W/m2
21:44 47.4 °F 39.5 °F 30.00 in SSE 1.0 mph 5.0 mph 74% 0.00 in 0.00 W/m2
21:49 47.3 °F 39.1 °F 30.00 in Calm   4.0 mph 73% 0.00 in 0.00 W/m2
21:55 47.2 °F 39.0 °F 30.00 in Calm   4.0 mph 73% 0.00 in 0.00 W/m2
21:59 46.9 °F 39.1 °F 30.00 in ESE 1.0 mph 3.0 mph 74% 0.00 in 0.00 W/m2
22:04 47.2 °F 39.3 °F 30.00 in Calm   3.0 mph 74% 0.00 in 0.00 W/m2
22:09 47.4 °F 39.5 °F 30.01 in SE 3.0 mph 4.0 mph 74% 0.00 in 0.00 W/m2
22:14 47.0 °F 39.2 °F 30.01 in Calm   4.0 mph 74% 0.00 in 0.00 W/m2
22:19 46.8 °F 39.0 °F 30.01 in Calm   4.0 mph 74% 0.00 in 0.00 W/m2
22:24 47.2 °F 39.0 °F 30.01 in SE 1.0 mph 4.0 mph 73% 0.00 in 0.00 W/m2
22:30 47.1 °F 38.9 °F 30.00 in SE 1.0 mph 4.0 mph 73% 0.00 in 0.00 W/m2
22:34 47.1 °F 39.2 °F 30.00 in SE 1.0 mph 4.0 mph 74% 0.00 in 0.00 W/m2
22:39 47.1 °F 38.9 °F 30.01 in Calm   4.0 mph 73% 0.00 in 0.00 W/m2
22:45 46.6 °F 38.8 °F 30.01 in ESE 1.0 mph 4.0 mph 74% 0.00 in 0.00 W/m2
22:49 46.8 °F 39.0 °F 30.01 in ESE 2.0 mph 3.0 mph 74% 0.00 in 0.00 W/m2
Southlake, Texas, USA
Compliments of Weather Underground - 5 mb